Time;durP1;ratioP1;P1;durP2;ratioP2;P2;SDS_P1;SDS_P2;PMS_P1;PMS_P2;Temp;Humidity;BMP_temperature;BMP_pressure;BME280_temperature;BME280_humidity;BME280_pressure;Samples;Min_cycle;Max_cycle;Signal;HPM_P1;HPM_P2
2023/04/25 00:01:05;;;;;;;25.98;3.88;;;;;;;;;;5014208;28;20080;-73
2023/04/25 00:03:33;;;;;;;20.27;3.90;;;;;;;;;;4982958;28;20076;-73
2023/04/25 00:06:02;;;;;;;22.23;4.63;;;;;;;;;;4983967;28;20042;-74
2023/04/25 00:08:30;;;;;;;32.03;4.65;;;;;;;;;;5002021;28;20632;-72
2023/04/25 00:10:56;;;;;;;25.52;3.85;;;;;;;;;;5002650;28;21872;-68
2023/04/25 00:13:21;;;;;;;23.20;4.43;;;;;;;;;;5003833;28;20033;-70
2023/04/25 00:15:50;;;;;;;21.88;4.47;;;;;;;;;;5002418;28;20087;-72
2023/04/25 00:18:18;;;;;;;27.80;4.88;;;;;;;;;;5003841;28;20037;-72
2023/04/25 00:20:46;;;;;;;25.75;3.92;;;;;;;;;;5003903;28;20244;-74
2023/04/25 00:23:20;;;;;;;22.55;3.28;;;;;;;;;;5007454;28;20063;-69
2023/04/25 00:25:46;;;;;;;19.40;3.25;;;;;;;;;;5035215;28;20060;-72
2023/04/25 00:28:11;;;;;;;23.10;3.40;;;;;;;;;;5021106;28;20030;-72
2023/04/25 00:30:37;;;;;;;24.95;4.05;;;;;;;;;;5002129;28;20524;-70
2023/04/25 00:33:02;;;;;;;21.38;3.97;;;;;;;;;;5004935;28;20146;-73
2023/04/25 00:35:28;;;;;;;19.35;4.03;;;;;;;;;;5034940;28;20033;-73
2023/04/25 00:37:54;;;;;;;21.98;4.13;;;;;;;;;;5001009;28;20022;-71
2023/04/25 00:40:20;;;;;;;18.98;3.70;;;;;;;;;;5006595;28;20034;-69
2023/04/25 00:42:49;;;;;;;15.10;3.15;;;;;;;;;;5006229;28;20146;-69
2023/04/25 00:45:15;;;;;;;25.00;3.88;;;;;;;;;;5038215;28;20037;-71
2023/04/25 00:47:43;;;;;;;22.63;3.40;;;;;;;;;;5037530;28;20045;-72
2023/04/25 00:50:09;;;;;;;21.40;3.22;;;;;;;;;;5004385;28;20052;-76
2023/04/25 00:52:34;;;;;;;18.75;3.88;;;;;;;;;;5009578;28;20731;-74
2023/04/25 00:55:02;;;;;;;25.92;3.30;;;;;;;;;;5007123;28;20036;-75
2023/04/25 00:57:28;;;;;;;21.13;3.65;;;;;;;;;;5007424;28;20573;-74
2023/04/25 00:59:56;;;;;;;21.55;3.90;;;;;;;;;;5015702;28;20037;-70
2023/04/25 01:02:21;;;;;;;18.40;3.03;;;;;;;;;;5004687;28;20117;-74
2023/04/25 01:04:47;;;;;;;20.63;4.20;;;;;;;;;;5008025;28;20092;-74
2023/04/25 01:07:12;;;;;;;31.85;3.88;;;;;;;;;;5007916;28;20049;-73
2023/04/25 01:09:38;;;;;;;22.77;3.65;;;;;;;;;;5038402;28;20033;-75
2023/04/25 01:12:06;;;;;;;22.45;4.07;;;;;;;;;;5003462;28;20038;-70
2023/04/25 01:14:31;;;;;;;20.27;3.22;;;;;;;;;;5010487;28;20052;-74
2023/04/25 01:16:58;;;;;;;20.98;3.78;;;;;;;;;;5006163;28;20046;-73
2023/04/25 01:19:23;;;;;;;29.60;3.78;;;;;;;;;;5007348;28;20502;-72
2023/04/25 01:21:48;;;;;;;30.50;3.65;;;;;;;;;;5010006;28;20056;-75
2023/04/25 01:24:14;;;;;;;21.80;3.40;;;;;;;;;;5008923;28;20041;-73
2023/04/25 01:26:49;;;;;;;19.80;3.55;;;;;;;;;;5008848;28;20445;-72
2023/04/25 01:29:15;;;;;;;20.30;4.13;;;;;;;;;;5037981;28;20046;-72
2023/04/25 01:31:40;;;;;;;27.30;5.60;;;;;;;;;;5006925;28;20316;-73
2023/04/25 01:34:06;;;;;;;23.30;3.55;;;;;;;;;;5037909;28;20053;-72
2023/04/25 01:36:31;;;;;;;20.35;2.90;;;;;;;;;;5037218;28;20045;-72
2023/04/25 01:38:56;;;;;;;18.17;2.80;;;;;;;;;;5006043;28;20041;-76
2023/04/25 01:41:23;;;;;;;27.30;3.90;;;;;;;;;;5022562;28;20045;-74
2023/04/25 01:43:48;;;;;;;27.58;3.90;;;;;;;;;;5006230;28;20127;-71
2023/04/25 01:46:13;;;;;;;18.92;3.25;;;;;;;;;;5008841;28;20386;-73
2023/04/25 01:48:39;;;;;;;20.67;3.72;;;;;;;;;;5007531;28;20084;-74
2023/04/25 01:51:04;;;;;;;24.02;3.45;;;;;;;;;;5010315;28;20037;-72
2023/04/25 01:53:30;;;;;;;16.35;3.03;;;;;;;;;;5005904;28;20352;-73
2023/04/25 01:55:55;;;;;;;20.45;3.25;;;;;;;;;;5007933;28;20206;-76
2023/04/25 01:58:20;;;;;;;23.35;3.10;;;;;;;;;;5009648;28;20052;-69
2023/04/25 02:00:46;;;;;;;18.50;3.35;;;;;;;;;;5019004;28;20415;-71
2023/04/25 02:03:11;;;;;;;12.60;2.30;;;;;;;;;;5005524;28;20435;-71
2023/04/25 02:05:37;;;;;;;17.42;3.15;;;;;;;;;;5006775;28;20643;-72
2023/04/25 02:08:04;;;;;;;15.25;2.67;;;;;;;;;;5035925;28;20064;-72
2023/04/25 02:10:32;;;;;;;16.23;3.20;;;;;;;;;;5004399;28;20093;-72
2023/04/25 02:12:58;;;;;;;16.02;2.95;;;;;;;;;;5007169;28;20038;-73
2023/04/25 02:15:23;;;;;;;14.57;2.58;;;;;;;;;;5007095;28;20067;-71
2023/04/25 02:17:54;;;;;;;12.40;2.55;;;;;;;;;;5004201;28;20033;-73
2023/04/25 02:20:23;;;;;;;11.50;2.20;;;;;;;;;;5003360;28;20034;-73
2023/04/25 02:22:48;;;;;;;15.73;2.30;;;;;;;;;;5004951;28;20915;-73
2023/04/25 02:25:13;;;;;;;15.63;2.95;;;;;;;;;;5012154;28;20030;-72
2023/04/25 02:27:42;;;;;;;10.25;2.50;;;;;;;;;;5010769;28;20389;-72
2023/04/25 02:30:07;;;;;;;20.88;3.58;;;;;;;;;;5021116;28;20492;-74
2023/04/25 02:32:34;;;;;;;23.73;3.92;;;;;;;;;;5005534;28;21025;-74
2023/04/25 02:35:05;;;;;;;20.85;2.78;;;;;;;;;;5036340;28;20033;-74
2023/04/25 02:37:33;;;;;;;20.48;3.13;;;;;;;;;;5006161;28;20303;-73
2023/04/25 02:39:58;;;;;;;22.40;3.95;;;;;;;;;;5008074;28;20502;-74
2023/04/25 02:42:26;;;;;;;20.73;3.10;;;;;;;;;;5034997;28;20044;-75
2023/04/25 02:44:51;;;;;;;17.90;3.30;;;;;;;;;;5019348;28;20509;-73
2023/04/25 02:47:16;;;;;;;22.75;3.67;;;;;;;;;;5003702;28;20045;-71
2023/04/25 02:49:42;;;;;;;21.02;3.30;;;;;;;;;;5004208;28;20466;-72
2023/04/25 02:52:07;;;;;;;20.05;3.28;;;;;;;;;;5004780;28;21019;-77
2023/04/25 02:54:37;;;;;;;16.67;3.60;;;;;;;;;;5005993;28;20099;-72
2023/04/25 02:57:05;;;;;;;19.15;3.90;;;;;;;;;;5006179;28;20064;-77
2023/04/25 02:59:30;;;;;;;17.52;3.47;;;;;;;;;;5006760;28;20038;-74
2023/04/25 03:01:55;;;;;;;26.05;3.30;;;;;;;;;;5009127;28;20041;-76
2023/04/25 03:04:23;;;;;;;17.58;3.50;;;;;;;;;;5003102;28;20037;-72
2023/04/25 03:06:49;;;;;;;20.77;2.97;;;;;;;;;;5036579;28;20144;-74
2023/04/25 03:09:14;;;;;;;17.42;3.42;;;;;;;;;;5005236;28;20033;-75
2023/04/25 03:11:40;;;;;;;17.70;3.05;;;;;;;;;;5005471;28;20075;-73
2023/04/25 03:14:05;;;;;;;16.38;2.50;;;;;;;;;;5034736;28;20483;-73
2023/04/25 03:16:30;;;;;;;17.38;3.08;;;;;;;;;;5006635;28;20041;-75
2023/04/25 03:18:58;;;;;;;18.02;2.70;;;;;;;;;;5005758;28;20044;-73
2023/04/25 03:21:23;;;;;;;16.70;2.92;;;;;;;;;;5003688;28;20041;-70
2023/04/25 03:23:48;;;;;;;13.93;2.80;;;;;;;;;;5014349;28;20053;-73
2023/04/25 03:26:16;;;;;;;16.60;2.13;;;;;;;;;;5009327;28;20048;-72
2023/04/25 03:28:41;;;;;;;10.82;2.10;;;;;;;;;;5035066;28;20037;-68
2023/04/25 03:31:06;;;;;;;11.57;2.50;;;;;;;;;;5035833;28;20394;-74
2023/04/25 03:33:32;;;;;;;12.45;1.55;;;;;;;;;;5004504;28;20251;-73
2023/04/25 03:35:57;;;;;;;8.25;1.88;;;;;;;;;;5003489;28;20487;-74
2023/04/25 03:38:25;;;;;;;13.80;2.70;;;;;;;;;;5005504;28;20064;-74
2023/04/25 03:40:52;;;;;;;9.27;2.20;;;;;;;;;;5007126;28;20525;-73
2023/04/25 03:43:20;;;;;;;17.83;2.60;;;;;;;;;;5032798;28;21063;-74
2023/04/25 03:45:45;;;;;;;10.88;2.58;;;;;;;;;;5001909;28;20040;-73
2023/04/25 03:48:11;;;;;;;17.80;2.70;;;;;;;;;;5035019;28;20274;-73
2023/04/25 03:50:36;;;;;;;12.88;2.22;;;;;;;;;;5004025;28;20191;-74
2023/04/25 03:53:04;;;;;;;26.67;3.20;;;;;;;;;;5005077;28;20041;-75
2023/04/25 03:55:29;;;;;;;17.83;3.20;;;;;;;;;;5005639;28;20418;-75
2023/04/25 03:57:55;;;;;;;22.50;3.47;;;;;;;;;;5007246;28;20068;-74
2023/04/25 04:00:22;;;;;;;23.02;3.85;;;;;;;;;;5034950;28;20071;-74
2023/04/25 04:02:47;;;;;;;17.95;3.55;;;;;;;;;;5002316;28;20072;-73
2023/04/25 04:05:12;;;;;;;23.23;3.25;;;;;;;;;;5003572;28;20033;-76
2023/04/25 04:07:39;;;;;;;28.35;5.22;;;;;;;;;;5003626;28;20308;-74
2023/04/25 04:10:11;;;;;;;16.95;3.35;;;;;;;;;;5034651;28;20045;-74
2023/04/25 04:12:37;;;;;;;22.20;3.10;;;;;;;;;;5009091;28;20056;-74
2023/04/25 04:15:03;;;;;;;24.92;4.03;;;;;;;;;;5000399;28;20056;-75
2023/04/25 04:17:29;;;;;;;19.10;3.33;;;;;;;;;;5003724;28;20422;-72
2023/04/25 04:19:57;;;;;;;21.55;2.75;;;;;;;;;;5027335;28;20037;-75
2023/04/25 04:22:22;;;;;;;20.67;3.05;;;;;;;;;;5003904;28;20492;-73
2023/04/25 04:24:49;;;;;;;16.05;3.00;;;;;;;;;;5010168;28;20030;-75
2023/04/25 04:27:15;;;;;;;13.32;2.20;;;;;;;;;;5004621;28;20044;-74
2023/04/25 04:29:40;;;;;;;17.92;3.15;;;;;;;;;;5034274;28;20038;-74
2023/04/25 04:32:05;;;;;;;21.38;2.53;;;;;;;;;;5009304;28;20044;-73
2023/04/25 04:34:30;;;;;;;23.00;3.72;;;;;;;;;;5032683;28;20045;-73
2023/04/25 04:36:56;;;;;;;23.48;2.85;;;;;;;;;;5032697;28;20549;-70
2023/04/25 04:39:24;;;;;;;19.67;3.42;;;;;;;;;;5002528;28;20657;-72
2023/04/25 04:41:50;;;;;;;21.80;3.15;;;;;;;;;;5036485;28;20033;-74
2023/04/25 04:44:16;;;;;;;17.83;2.80;;;;;;;;;;5003673;28;20047;-72
2023/04/25 04:46:44;;;;;;;17.23;2.75;;;;;;;;;;5002174;28;20045;-73
2023/04/25 04:49:09;;;;;;;17.50;2.70;;;;;;;;;;5002732;28;20535;-72
2023/04/25 04:51:37;;;;;;;20.33;2.90;;;;;;;;;;5034287;28;20041;-70
2023/04/25 04:54:03;;;;;;;14.77;2.88;;;;;;;;;;4985421;28;20038;-74
2023/04/25 04:56:31;;;;;;;17.90;3.45;;;;;;;;;;5014013;28;20411;-74
2023/04/25 04:58:57;;;;;;;20.50;3.17;;;;;;;;;;4981949;28;20176;-73
2023/04/25 05:01:22;;;;;;;22.55;3.08;;;;;;;;;;5014247;28;20034;-71
2023/04/25 05:03:48;;;;;;;23.67;3.80;;;;;;;;;;5012552;28;20042;-72
2023/04/25 05:06:15;;;;;;;21.77;3.45;;;;;;;;;;5013212;28;20029;-74
2023/04/25 05:08:41;;;;;;;18.48;2.80;;;;;;;;;;4981669;28;20402;-73
2023/04/25 05:11:06;;;;;;;29.50;3.78;;;;;;;;;;4985774;28;20045;-72
2023/04/25 05:13:31;;;;;;;19.58;3.03;;;;;;;;;;4981807;28;20034;-70
2023/04/25 05:15:56;;;;;;;15.40;2.78;;;;;;;;;;4983095;28;20473;-71
2023/04/25 05:18:24;;;;;;;16.98;2.80;;;;;;;;;;4982231;28;20049;-68
2023/04/25 05:20:50;;;;;;;18.40;2.90;;;;;;;;;;4985794;28;20056;-70
2023/04/25 05:23:16;;;;;;;20.17;2.25;;;;;;;;;;4989772;28;20053;-68
2023/04/25 05:25:43;;;;;;;19.88;3.10;;;;;;;;;;4985935;28;20152;-68
2023/04/25 05:28:14;;;;;;;17.20;2.75;;;;;;;;;;4988419;28;20041;-69
2023/04/25 05:30:39;;;;;;;17.02;2.53;;;;;;;;;;4991044;28;20057;-69
2023/04/25 05:33:05;;;;;;;18.42;2.58;;;;;;;;;;4999360;28;20128;-70
2023/04/25 05:35:30;;;;;;;15.48;2.22;;;;;;;;;;5019924;28;20029;-66
2023/04/25 05:37:55;;;;;;;15.80;2.63;;;;;;;;;;5006211;28;20041;-69
2023/04/25 05:40:21;;;;;;;16.00;2.80;;;;;;;;;;5025264;28;20033;-68
2023/04/25 05:42:48;;;;;;;18.92;3.30;;;;;;;;;;5009009;28;20034;-68
2023/04/25 05:45:14;;;;;;;17.33;2.50;;;;;;;;;;5040065;28;20086;-70
2023/04/25 05:47:39;;;;;;;15.32;3.50;;;;;;;;;;5009050;28;20036;-68
2023/04/25 05:50:05;;;;;;;22.00;2.78;;;;;;;;;;5041917;28;20430;-70
2023/04/25 05:52:30;;;;;;;16.77;2.40;;;;;;;;;;5021369;28;20033;-71
2023/04/25 05:54:55;;;;;;;16.05;2.15;;;;;;;;;;5009076;28;20936;-71
2023/04/25 05:57:22;;;;;;;22.38;3.15;;;;;;;;;;5003314;28;20156;-71
2023/04/25 05:59:47;;;;;;;15.15;3.17;;;;;;;;;;4997802;28;20030;-70
2023/04/25 06:02:13;;;;;;;20.08;2.42;;;;;;;;;;5023688;28;20858;-68
2023/04/25 06:04:38;;;;;;;18.77;2.60;;;;;;;;;;4998638;28;20065;-70
2023/04/25 06:07:03;;;;;;;15.40;3.25;;;;;;;;;;5035545;28;20041;-76
2023/04/25 06:09:29;;;;;;;15.63;3.03;;;;;;;;;;5033490;28;20060;-68
2023/04/25 06:11:56;;;;;;;12.88;2.50;;;;;;;;;;5003463;28;20380;-71
2023/04/25 06:14:26;;;;;;;12.55;2.28;;;;;;;;;;5010995;28;20107;-69
2023/04/25 06:16:51;;;;;;;12.75;2.33;;;;;;;;;;5003926;28;20064;-68
2023/04/25 06:19:16;;;;;;;15.50;2.40;;;;;;;;;;5002647;28;20037;-71
2023/04/25 06:21:43;;;;;;;15.40;2.95;;;;;;;;;;5005635;28;20777;-70
2023/04/25 06:24:11;;;;;;;23.15;3.50;;;;;;;;;;5013104;28;20047;-70
2023/04/25 06:26:36;;;;;;;19.02;2.50;;;;;;;;;;5038940;28;20187;-71
2023/04/25 06:29:01;;;;;;;13.88;2.35;;;;;;;;;;5007901;28;20041;-71
2023/04/25 06:31:32;;;;;;;16.42;2.53;;;;;;;;;;5006148;28;20038;-68
2023/04/25 06:33:57;;;;;;;16.38;2.67;;;;;;;;;;5015236;28;20029;-70
2023/04/25 06:36:25;;;;;;;17.80;3.22;;;;;;;;;;5024089;28;20044;-72
2023/04/25 06:38:52;;;;;;;17.48;2.22;;;;;;;;;;5004404;28;20208;-72
2023/04/25 06:41:17;;;;;;;15.52;2.45;;;;;;;;;;5002981;28;20060;-71
2023/04/25 06:43:45;;;;;;;19.00;2.67;;;;;;;;;;5023798;28;20033;-69
2023/04/25 06:46:10;;;;;;;14.55;2.53;;;;;;;;;;5007800;28;20098;-73
2023/04/25 06:48:36;;;;;;;15.52;3.05;;;;;;;;;;5006554;28;20034;-70
2023/04/25 06:51:03;;;;;;;10.25;2.15;;;;;;;;;;5026059;28;20163;-71
2023/04/25 06:53:29;;;;;;;13.35;2.00;;;;;;;;;;5036558;28;20040;-70
2023/04/25 06:55:54;;;;;;;17.25;2.42;;;;;;;;;;5036640;28;20987;-72
2023/04/25 06:58:20;;;;;;;16.83;2.75;;;;;;;;;;5037118;28;20125;-73
2023/04/25 07:00:45;;;;;;;17.27;2.65;;;;;;;;;;5003598;28;20625;-71
2023/04/25 07:03:10;;;;;;;10.63;1.63;;;;;;;;;;5004208;28;21603;-68
2023/04/25 07:05:35;;;;;;;13.95;2.47;;;;;;;;;;5035716;28;20107;-72
2023/04/25 07:08:01;;;;;;;15.45;2.67;;;;;;;;;;4988576;28;20053;-71
2023/04/25 07:10:26;;;;;;;14.85;2.55;;;;;;;;;;4986229;28;20041;-72
2023/04/25 07:12:52;;;;;;;15.23;2.42;;;;;;;;;;4990762;28;20037;-74
2023/04/25 07:15:17;;;;;;;10.77;2.10;;;;;;;;;;5017679;28;20437;-73
2023/04/25 07:17:44;;;;;;;14.88;2.10;;;;;;;;;;4981949;28;20121;-72
2023/04/25 07:20:10;;;;;;;18.08;2.35;;;;;;;;;;5002761;28;20041;-69
2023/04/25 07:22:35;;;;;;;11.82;1.92;;;;;;;;;;5006399;28;20071;-72
2023/04/25 07:25:01;;;;;;;15.80;2.42;;;;;;;;;;5019918;28;20030;-73
2023/04/25 07:27:26;;;;;;;11.23;2.05;;;;;;;;;;5005573;28;20057;-78
2023/04/25 07:29:51;;;;;;;10.23;2.10;;;;;;;;;;5001926;28;20126;-75
2023/04/25 07:32:16;;;;;;;13.23;2.22;;;;;;;;;;4987251;28;20033;-73
2023/04/25 07:34:42;;;;;;;13.18;2.08;;;;;;;;;;4990384;28;20030;-75
2023/04/25 07:37:07;;;;;;;13.73;2.35;;;;;;;;;;4979647;28;20034;-72
2023/04/25 07:39:32;;;;;;;9.02;2.33;;;;;;;;;;4983734;28;20701;-70
2023/04/25 07:42:01;;;;;;;17.48;2.33;;;;;;;;;;4989139;28;20038;-74
2023/04/25 07:44:27;;;;;;;12.90;2.60;;;;;;;;;;4984160;28;20033;-74
2023/04/25 07:46:54;;;;;;;14.30;2.00;;;;;;;;;;5013687;28;20057;-70
2023/04/25 07:49:20;;;;;;;10.43;2.00;;;;;;;;;;4970070;28;20050;-70
2023/04/25 07:51:45;;;;;;;10.95;2.05;;;;;;;;;;4972616;28;20034;-70
2023/04/25 07:54:14;;;;;;;11.68;2.25;;;;;;;;;;4967612;28;20563;-70
2023/04/25 07:56:40;;;;;;;9.60;1.88;;;;;;;;;;4960937;28;20056;-73
2023/04/25 07:59:05;;;;;;;8.20;1.90;;;;;;;;;;4966105;28;20030;-66
2023/04/25 08:01:33;;;;;;;9.00;1.90;;;;;;;;;;4964660;28;20192;-70
2023/04/25 08:03:58;;;;;;;15.45;2.25;;;;;;;;;;4966848;28;20045;-74
2023/04/25 08:06:24;;;;;;;13.27;2.25;;;;;;;;;;4965626;28;20891;-85
2023/04/25 08:08:50;;;;;;;18.73;2.40;;;;;;;;;;4986696;28;20060;-71
2023/04/25 08:11:16;;;;;;;10.00;1.98;;;;;;;;;;5018150;28;20034;-66
2023/04/25 08:13:41;;;;;;;15.25;2.47;;;;;;;;;;4983320;28;20907;-72
2023/04/25 08:16:06;;;;;;;12.18;2.13;;;;;;;;;;4985447;28;20029;-76
2023/04/25 08:18:31;;;;;;;16.02;2.40;;;;;;;;;;4983570;28;20065;-73
2023/04/25 08:20:57;;;;;;;15.93;2.08;;;;;;;;;;4988045;28;20033;-75
2023/04/25 08:23:24;;;;;;;10.13;1.40;;;;;;;;;;4993652;28;20058;-76
2023/04/25 08:25:50;;;;;;;14.05;2.78;;;;;;;;;;5025891;28;20044;-76
2023/04/25 08:28:18;;;;;;;10.82;1.45;;;;;;;;;;4988536;28;20518;-77
2023/04/25 08:30:43;;;;;;;12.48;2.05;;;;;;;;;;4987669;28;20030;-75
2023/04/25 08:33:08;;;;;;;19.35;2.50;;;;;;;;;;4989646;28;20076;-77
2023/04/25 08:35:36;;;;;;;16.40;2.25;;;;;;;;;;4991624;28;20034;-77
2023/04/25 08:38:02;;;;;;;15.32;2.47;;;;;;;;;;4988231;28;20120;-78
2023/04/25 08:40:29;;;;;;;13.30;2.40;;;;;;;;;;5027175;28;20040;-75
2023/04/25 08:42:56;;;;;;;9.02;1.67;;;;;;;;;;4995262;28;20495;-78
2023/04/25 08:45:27;;;;;;;11.10;2.13;;;;;;;;;;4991004;28;20036;-77
2023/04/25 08:47:53;;;;;;;10.80;2.10;;;;;;;;;;5001003;28;20077;-77
2023/04/25 08:50:22;;;;;;;15.48;1.90;;;;;;;;;;4991213;28;20033;-79
2023/04/25 08:52:50;;;;;;;9.65;1.80;;;;;;;;;;4985322;28;20049;-79
2023/04/25 08:55:15;;;;;;;10.88;1.98;;;;;;;;;;4985239;28;20057;-78
2023/04/25 08:57:44;;;;;;;7.40;1.38;;;;;;;;;;4989349;28;20042;-80
2023/04/25 09:00:11;;;;;;;17.05;2.78;;;;;;;;;;4996085;28;20033;-78
2023/04/25 09:02:39;;;;;;;7.40;1.92;;;;;;;;;;5005171;28;20104;-76
2023/04/25 09:05:09;;;;;;;10.52;2.10;;;;;;;;;;5011440;28;20121;-77
2023/04/25 09:07:37;;;;;;;12.40;2.00;;;;;;;;;;5041379;28;20557;-77
2023/04/25 09:10:03;;;;;;;9.07;1.80;;;;;;;;;;5003852;28;20129;-76
2023/04/25 09:12:31;;;;;;;12.88;2.03;;;;;;;;;;5033087;28;20041;-76
2023/04/25 09:15:04;;;;;;;13.02;2.38;;;;;;;;;;5016031;28;20033;-77
2023/04/25 09:17:29;;;;;;;14.30;2.33;;;;;;;;;;5015643;28;20036;-77
2023/04/25 09:19:55;;;;;;;11.50;2.03;;;;;;;;;;5008925;28;20042;-76
2023/04/25 09:22:23;;;;;;;15.43;2.03;;;;;;;;;;5011485;28;20091;-77
2023/04/25 09:24:49;;;;;;;17.23;1.95;;;;;;;;;;5011519;28;20045;-77
2023/04/25 09:27:19;;;;;;;16.48;2.05;;;;;;;;;;5012547;28;20045;-79
2023/04/25 09:29:46;;;;;;;17.23;1.90;;;;;;;;;;5011407;28;20037;-78
2023/04/25 09:32:11;;;;;;;9.30;1.63;;;;;;;;;;5008889;28;20052;-73
2023/04/25 09:34:41;;;;;;;7.50;1.70;;;;;;;;;;5010945;28;20723;-76
2023/04/25 09:37:07;;;;;;;5.82;1.40;;;;;;;;;;5009817;28;20037;-77
2023/04/25 09:39:35;;;;;;;8.00;1.20;;;;;;;;;;5014976;28;20053;-80
2023/04/25 09:42:00;;;;;;;9.00;1.52;;;;;;;;;;5013920;28;20056;-80
2023/04/25 09:44:27;;;;;;;11.77;2.10;;;;;;;;;;5022009;28;20037;-81
2023/04/25 09:46:53;;;;;;;11.07;1.70;;;;;;;;;;5015562;28;20038;-75
2023/04/25 09:49:19;;;;;;;16.45;2.80;;;;;;;;;;5045543;28;20123;-76
2023/04/25 09:51:53;;;;;;;12.98;1.98;;;;;;;;;;5013682;28;20033;-76
2023/04/25 09:54:18;;;;;;;8.85;1.73;;;;;;;;;;5017022;28;20084;-78
2023/04/25 09:56:47;;;;;;;16.52;2.35;;;;;;;;;;5016809;28;20577;-77
2023/04/25 09:59:12;;;;;;;11.75;2.58;;;;;;;;;;5018827;28;20029;-77
2023/04/25 10:01:39;;;;;;;10.93;1.75;;;;;;;;;;5036692;28;20033;-77
2023/04/25 10:04:10;;;;;;;11.20;2.00;;;;;;;;;;5009403;28;20047;-77
2023/04/25 10:06:39;;;;;;;15.02;1.95;;;;;;;;;;5040052;28;20068;-74
2023/04/25 10:09:07;;;;;;;12.18;1.80;;;;;;;;;;5016197;28;20073;-77
2023/04/25 10:11:32;;;;;;;15.48;2.00;;;;;;;;;;5010608;28;20041;-79
2023/04/25 10:13:58;;;;;;;18.15;2.55;;;;;;;;;;5033484;28;20043;-78
2023/04/25 10:16:26;;;;;;;13.73;2.05;;;;;;;;;;5011471;28;20042;-77
2023/04/25 10:18:54;;;;;;;17.63;2.50;;;;;;;;;;5011423;28;20037;-79
2023/04/25 10:21:22;;;;;;;17.13;2.33;;;;;;;;;;5009515;28;20124;-79
2023/04/25 10:23:48;;;;;;;9.80;1.88;;;;;;;;;;5008516;28;20034;-78
2023/04/25 10:26:14;;;;;;;12.63;2.00;;;;;;;;;;5042751;28;20044;-74
2023/04/25 10:28:56;;;;;;;11.85;1.63;;;;;;;;;;5008265;28;20041;-76
2023/04/25 10:31:22;;;;;;;17.42;2.60;;;;;;;;;;5013618;28;20029;-75
2023/04/25 10:33:48;;;;;;;17.02;3.22;;;;;;;;;;5011642;28;20034;-76
2023/04/25 10:36:23;;;;;;;14.68;1.98;;;;;;;;;;5012312;28;20084;-74
2023/04/25 10:38:52;;;;;;;9.77;1.65;;;;;;;;;;5012071;28;20029;-77
2023/04/25 10:41:21;;;;;;;7.35;1.40;;;;;;;;;;4994170;28;20041;-77
2023/04/25 10:43:46;;;;;;;4.95;1.10;;;;;;;;;;5002476;28;20038;-72
2023/04/25 10:46:14;;;;;;;9.32;1.55;;;;;;;;;;5010196;28;20034;-76
2023/04/25 10:48:44;;;;;;;12.43;2.17;;;;;;;;;;5007859;28;20128;-77
2023/04/25 10:51:30;;;;;;;6.57;1.65;;;;;;;;;;5009119;28;20120;-79
2023/04/25 10:53:59;;;;;;;9.30;1.90;;;;;;;;;;5041551;28;20444;-79
2023/04/25 10:56:31;;;;;;;9.73;1.92;;;;;;;;;;5039924;28;20041;-75
2023/04/25 10:59:06;;;;;;;13.27;1.83;;;;;;;;;;5040102;28;20729;-77
2023/04/25 11:01:35;;;;;;;10.30;1.70;;;;;;;;;;5006647;28;20041;-77
2023/04/25 11:04:03;;;;;;;11.00;1.88;;;;;;;;;;5006371;28;20663;-77
2023/04/25 11:06:46;;;;;;;16.50;1.80;;;;;;;;;;5024465;28;20045;-72
2023/04/25 11:09:13;;;;;;;11.27;2.00;;;;;;;;;;5010420;28;20118;-81
2023/04/25 11:11:41;;;;;;;21.25;2.55;;;;;;;;;;5013322;28;20134;-77
2023/04/25 11:14:06;;;;;;;19.98;2.70;;;;;;;;;;5039635;28;20041;-74
2023/04/25 11:16:32;;;;;;;22.48;2.45;;;;;;;;;;5011165;28;20033;-75
2023/04/25 11:18:58;;;;;;;15.75;2.33;;;;;;;;;;5008066;28;20041;-76
2023/04/25 11:21:23;;;;;;;8.90;1.60;;;;;;;;;;5008188;28;20029;-75
2023/04/25 11:23:48;;;;;;;11.90;1.88;;;;;;;;;;5008281;28;20037;-73
2023/04/25 11:26:14;;;;;;;9.73;1.70;;;;;;;;;;5009276;28;20033;-74
2023/04/25 11:28:40;;;;;;;7.93;2.03;;;;;;;;;;5041053;28;20037;-73
2023/04/25 11:31:05;;;;;;;9.88;1.83;;;;;;;;;;5007344;28;20049;-70
2023/04/25 11:33:31;;;;;;;13.70;2.25;;;;;;;;;;5006144;28;20048;-74
2023/04/25 11:35:56;;;;;;;13.45;1.92;;;;;;;;;;5004944;28;20709;-73
2023/04/25 11:38:24;;;;;;;8.45;1.60;;;;;;;;;;5003624;28;20044;-75
2023/04/25 11:40:51;;;;;;;11.30;2.35;;;;;;;;;;5036069;28;20037;-74
2023/04/25 11:43:17;;;;;;;7.85;1.90;;;;;;;;;;5037706;28;20604;-71
2023/04/25 11:45:49;;;;;;;10.65;1.80;;;;;;;;;;5004041;28;20060;-75
2023/04/25 11:48:16;;;;;;;10.13;1.40;;;;;;;;;;5008815;28;20045;-77
2023/04/25 11:50:42;;;;;;;11.75;1.70;;;;;;;;;;5007172;28;20064;-71
2023/04/25 11:53:08;;;;;;;22.00;1.73;;;;;;;;;;5038046;28;20630;-71
2023/04/25 11:55:33;;;;;;;10.07;1.80;;;;;;;;;;5007607;28;20686;-75
2023/04/25 11:58:00;;;;;;;12.93;1.77;;;;;;;;;;5038151;28;20126;-73
2023/04/25 12:00:26;;;;;;;9.07;2.00;;;;;;;;;;5010882;28;20045;-79
2023/04/25 12:02:57;;;;;;;14.65;2.40;;;;;;;;;;5005335;28;20125;-72
2023/04/25 12:05:28;;;;;;;8.55;1.75;;;;;;;;;;5003047;28;20069;-76
2023/04/25 12:07:54;;;;;;;9.43;1.53;;;;;;;;;;5004896;28;20049;-78
2023/04/25 12:10:20;;;;;;;19.05;2.85;;;;;;;;;;5009146;28;20232;-74
2023/04/25 12:12:47;;;;;;;14.65;2.25;;;;;;;;;;5011147;28;20463;-72
2023/04/25 12:15:17;;;;;;;13.30;2.08;;;;;;;;;;5006177;28;20045;-78
2023/04/25 12:17:45;;;;;;;12.23;2.10;;;;;;;;;;5006207;28;20044;-68
2023/04/25 12:20:12;;;;;;;12.30;1.90;;;;;;;;;;5005061;28;20044;-72
2023/04/25 12:22:37;;;;;;;11.05;1.88;;;;;;;;;;5004343;28;20042;-75
2023/04/25 12:25:07;;;;;;;13.60;2.08;;;;;;;;;;5034238;28;20033;-76
2023/04/25 12:27:33;;;;;;;14.95;2.20;;;;;;;;;;5008940;28;20041;-77
2023/04/25 12:29:59;;;;;;;20.05;2.60;;;;;;;;;;5005472;28;20916;-71
2023/04/25 12:32:26;;;;;;;13.70;2.17;;;;;;;;;;5034370;28;20057;-75
2023/04/25 12:34:53;;;;;;;14.13;2.20;;;;;;;;;;5005842;28;20044;-73
2023/04/25 12:37:19;;;;;;;20.33;2.17;;;;;;;;;;5012650;28;20033;-75
2023/04/25 12:39:44;;;;;;;14.77;2.53;;;;;;;;;;5012534;28;20041;-77
2023/04/25 12:42:11;;;;;;;16.05;2.17;;;;;;;;;;5013753;28;21027;-71
2023/04/25 12:44:37;;;;;;;13.02;2.00;;;;;;;;;;5018017;28;20060;-73
2023/04/25 12:47:06;;;;;;;14.77;2.15;;;;;;;;;;5018206;28;20049;-77
2023/04/25 12:49:32;;;;;;;18.35;2.65;;;;;;;;;;5022861;28;21220;-73
2023/04/25 12:51:59;;;;;;;15.38;2.40;;;;;;;;;;5011947;28;20111;-77
2023/04/25 12:54:25;;;;;;;10.85;2.00;;;;;;;;;;5042007;28;20038;-72
2023/04/25 12:56:51;;;;;;;16.33;2.50;;;;;;;;;;5009669;28;20129;-76
2023/04/25 12:59:20;;;;;;;16.00;2.08;;;;;;;;;;5042536;28;20470;-70
2023/04/25 13:01:45;;;;;;;14.02;2.28;;;;;;;;;;5009945;28;20168;-79
2023/04/25 13:04:10;;;;;;;17.20;2.63;;;;;;;;;;5010502;28;20619;-77
2023/04/25 13:06:36;;;;;;;11.82;1.92;;;;;;;;;;5042870;28;20394;-75
2023/04/25 13:09:04;;;;;;;12.95;1.73;;;;;;;;;;5043772;28;21926;-76
2023/04/25 13:11:29;;;;;;;12.52;1.90;;;;;;;;;;5010688;28;20029;-77
2023/04/25 13:13:55;;;;;;;14.05;1.98;;;;;;;;;;5016023;28;20040;-79
2023/04/25 13:16:22;;;;;;;14.15;2.08;;;;;;;;;;5012581;28;20037;-79
2023/04/25 13:18:48;;;;;;;19.40;2.60;;;;;;;;;;5043634;28;20398;-75
2023/04/25 13:21:13;;;;;;;10.77;2.00;;;;;;;;;;5015220;28;20214;-78
2023/04/25 13:23:38;;;;;;;20.58;2.88;;;;;;;;;;5009432;28;20029;-72
2023/04/25 13:26:04;;;;;;;17.95;2.92;;;;;;;;;;5024292;28;20140;-75
2023/04/25 13:28:29;;;;;;;19.50;2.80;;;;;;;;;;5040216;28;20045;-75
2023/04/25 13:30:57;;;;;;;14.50;2.28;;;;;;;;;;5009935;28;20413;-78
2023/04/25 13:33:25;;;;;;;9.85;1.45;;;;;;;;;;5008364;28;20878;-77
2023/04/25 13:35:55;;;;;;;19.30;2.67;;;;;;;;;;5009643;28;20616;-74
2023/04/25 13:38:23;;;;;;;12.13;1.90;;;;;;;;;;5038633;28;20228;-79
2023/04/25 13:40:49;;;;;;;13.80;2.40;;;;;;;;;;5011734;28;20038;-75
2023/04/25 13:43:14;;;;;;;16.08;2.17;;;;;;;;;;5018705;28;20037;-76
2023/04/25 13:45:41;;;;;;;14.30;2.30;;;;;;;;;;5007939;28;20038;-73
2023/04/25 13:48:07;;;;;;;15.75;2.75;;;;;;;;;;5040681;28;20433;-76
2023/04/25 13:50:32;;;;;;;14.30;2.15;;;;;;;;;;5040721;28;20042;-78
2023/04/25 13:53:00;;;;;;;11.20;2.08;;;;;;;;;;5010052;28;20037;-72
2023/04/25 13:55:25;;;;;;;16.65;2.63;;;;;;;;;;5007733;28;20137;-79
2023/04/25 13:57:53;;;;;;;23.10;2.58;;;;;;;;;;5019384;28;21904;-79
2023/04/25 14:00:18;;;;;;;14.18;2.47;;;;;;;;;;5008668;28;20040;-77
2023/04/25 14:02:44;;;;;;;11.50;2.47;;;;;;;;;;5009958;28;20045;-78
2023/04/25 14:05:09;;;;;;;9.77;2.40;;;;;;;;;;5006688;28;20049;-79
2023/04/25 14:07:34;;;;;;;11.77;2.13;;;;;;;;;;5011135;28;20068;-79
2023/04/25 14:10:00;;;;;;;13.07;2.40;;;;;;;;;;5040557;28;20029;-78
2023/04/25 14:12:30;;;;;;;15.38;2.58;;;;;;;;;;5011101;28;20164;-78
2023/04/25 14:14:59;;;;;;;19.63;2.50;;;;;;;;;;5030228;28;20065;-76
2023/04/25 14:17:24;;;;;;;17.48;3.03;;;;;;;;;;5013219;28;20306;-69
2023/04/25 14:19:52;;;;;;;13.05;2.50;;;;;;;;;;5012751;28;20037;-75
2023/04/25 14:22:20;;;;;;;12.88;2.15;;;;;;;;;;5012289;28;20121;-71
2023/04/25 14:24:47;;;;;;;11.02;1.50;;;;;;;;;;5016109;28;20032;-71
2023/04/25 14:27:13;;;;;;;10.23;1.83;;;;;;;;;;5011303;28;20041;-76